Millville Municipal Airport Millville US
ICAO: KMIV
IATA: MIV
Category: Medium
Scheduled Services: No

Elevation: 85 ft
TransAlt. 18000 ft.

Airport Communications:
APP/DEP:124.6
ASOS:128.125
CTAF:123.65
RDO:123.65
UNICOM:123

KMIV Zoom In..

Runways:

(A) RW 10 length 6003 ft width 150 ft
ILS 110.90 / hdg 101

(B) RW 14 length 5058 ft width 150 ft
---- / hdg 146

(C) RW 28 length 6003 ft width 150 ft
---- / hdg 281

(D) RW 32 length 5058 ft width 150 ft
---- / hdg 326

Location; KMIV
Day. 23 / Time. 14.54 Zulu
* Altimeter: 29.68
* Temperature: 13° c. 55.4°f.
* Wind from: 180° Speed 09 kn with Gusts up to 17 kn.
Dewpoint: 13° c.
Visibility: 10 Statute Miles.
Clouds: Broken 500 ft.
Clouds: Broken 1400 ft.
Clouds: Overcast 8000 ft.

KMIV 231454Z AUTO 18009G17KT 10SM BKN005 BKN014 OVC080 13/13 A2968 RMK AO2 RAE41 CIG 003V008 SLP050 P0022 60032 T01280128 58017


Wind From 180°
Speed 09 kn.

YouTube Music Video
 
jpsmedia.com for Web Design  worldairports.se 2018   terms of use